createdAt,value
2018-09-06T00:02:26.117Z,16.07
2018-09-06T00:04:56.669Z,18.75
2018-09-06T00:07:27.888Z,14.87
2018-09-06T00:09:58.488Z,16.42
2018-09-06T00:12:29.157Z,18.67
2018-09-06T00:14:59.796Z,20.27
2018-09-06T00:17:31.118Z,15.08
2018-09-06T00:20:02.411Z,14.10
2018-09-06T00:22:33.142Z,17.23
2018-09-06T00:25:04.423Z,18.67
2018-09-06T00:27:35.472Z,16.17
2018-09-06T00:30:07.632Z,16.17
2018-09-06T00:32:38.449Z,18.95
2018-09-06T00:35:09.379Z,18.00
2018-09-06T00:37:40.504Z,14.33
2018-09-06T00:40:11.564Z,16.37
2018-09-06T00:42:42.441Z,16.95
2018-09-06T00:45:13.620Z,17.30
2018-09-06T00:47:44.859Z,20.30
2018-09-06T00:50:17.415Z,19.55
2018-09-06T00:52:49.880Z,16.37
2018-09-06T00:55:21.713Z,16.80
2018-09-06T00:57:52.444Z,16.90
2018-09-06T01:00:23.105Z,18.82
2018-09-06T01:02:54.244Z,17.52
2018-09-06T01:05:24.982Z,25.23
2018-09-06T01:07:55.749Z,17.77
2018-09-06T01:10:26.398Z,16.57
2018-09-06T01:12:56.937Z,17.62
2018-09-06T01:15:27.621Z,20.50
2018-09-06T01:17:58.712Z,17.25
2018-09-06T01:20:29.689Z,20.00
2018-09-06T01:23:00.896Z,19.32
2018-09-06T01:25:37.171Z,25.10
2018-09-06T01:28:07.901Z,17.60
2018-09-06T01:30:38.788Z,19.07
2018-09-06T01:33:09.483Z,21.42
2018-09-06T01:35:45.582Z,16.75
2018-09-06T01:38:16.819Z,20.20
2018-09-06T01:40:47.504Z,15.60
2018-09-06T01:43:18.580Z,15.50
2018-09-06T01:45:49.334Z,15.95
2018-09-06T01:48:20.182Z,16.42
2018-09-06T01:50:51.430Z,18.30
2018-09-06T01:53:22.394Z,17.80
2018-09-06T01:55:53.404Z,18.67
2018-09-06T01:58:24.354Z,21.70
2018-09-06T02:00:54.649Z,18.15
2018-09-06T02:03:24.785Z,18.55
2018-09-06T02:05:54.936Z,19.37
2018-09-06T02:08:25.756Z,17.92
2018-09-06T02:10:56.432Z,17.70
2018-09-06T02:13:26.820Z,16.37
2018-09-06T02:15:58.100Z,21.75
2018-09-06T02:18:28.794Z,20.72
2018-09-06T02:20:59.702Z,17.40
2018-09-06T02:23:31.068Z,18.65
2018-09-06T02:26:01.897Z,19.73
2018-09-06T02:28:32.450Z,19.07
2018-09-06T02:31:02.661Z,20.27
2018-09-06T02:33:32.733Z,20.53
2018-09-06T02:36:03.640Z,20.35
2018-09-06T02:38:33.722Z,19.73
2018-09-06T02:41:04.653Z,21.82
2018-09-06T02:43:34.913Z,18.50
2018-09-06T02:46:05.624Z,19.92
2018-09-06T02:48:38.887Z,22.77
2018-09-06T02:51:21.472Z,18.50
2018-09-06T02:53:52.232Z,16.93
2018-09-06T02:56:22.496Z,19.57
2018-09-06T02:58:52.944Z,18.83
2018-09-06T03:01:23.620Z,20.20
2018-09-06T03:03:55.139Z,18.37
2018-09-06T03:06:25.693Z,16.00
2018-09-06T03:08:56.300Z,18.87
2018-09-06T03:11:31.138Z,19.62
2018-09-06T03:14:01.878Z,20.00
2018-09-06T03:16:32.678Z,18.90
2018-09-06T03:19:03.520Z,17.87
2018-09-06T03:21:34.513Z,17.75
2018-09-06T03:24:05.008Z,17.82
2018-09-06T03:26:36.309Z,16.35
2018-09-06T03:29:07.004Z,14.30
2018-09-06T03:31:37.206Z,15.55
2018-09-06T03:34:08.153Z,17.90
2018-09-06T03:36:38.775Z,14.70
2018-09-06T03:39:10.546Z,17.82
2018-09-06T03:41:41.224Z,15.70
2018-09-06T03:44:12.136Z,16.00
2018-09-06T03:46:42.484Z,16.25
2018-09-06T03:49:13.301Z,15.35
2018-09-06T03:51:43.414Z,14.33
2018-09-06T03:54:14.582Z,12.53
2018-09-06T03:56:46.064Z,13.62
2018-09-06T03:59:16.519Z,14.80
2018-09-06T04:01:46.909Z,12.43
2018-09-06T04:04:16.912Z,15.13
2018-09-06T04:06:47.103Z,12.83
2018-09-06T04:09:17.715Z,12.18
2018-09-06T04:11:47.791Z,12.93
2018-09-06T04:14:17.922Z,11.20
2018-09-06T04:16:48.203Z,13.83
2018-09-06T04:19:18.609Z,12.07
2018-09-06T04:21:49.603Z,11.43
2018-09-06T04:24:20.411Z,9.68
2018-09-06T04:26:51.367Z,12.67
2018-09-06T04:29:21.999Z,11.53
2018-09-06T04:31:52.643Z,12.33
2018-09-06T04:34:23.360Z,12.80
2018-09-06T04:36:53.540Z,9.10
2018-09-06T04:39:24.122Z,9.97
2018-09-06T04:41:54.237Z,8.80
2018-09-06T04:44:24.354Z,10.30
2018-09-06T04:46:54.851Z,8.87
2018-09-06T04:49:25.229Z,10.63
2018-09-06T04:51:55.467Z,9.47
2018-09-06T04:54:25.780Z,9.17
2018-09-06T04:56:56.415Z,15.53
2018-09-06T04:59:26.809Z,8.73
2018-09-06T05:01:57.062Z,6.73
2018-09-06T05:04:27.596Z,7.17
2018-09-06T05:06:58.027Z,15.93
2018-09-06T05:09:28.354Z,10.23
2018-09-06T05:11:58.684Z,9.13
2018-09-06T05:14:28.882Z,14.47
2018-09-06T05:16:59.885Z,9.30
2018-09-06T05:19:30.132Z,8.63
2018-09-06T05:22:00.757Z,8.03
2018-09-06T05:24:31.123Z,9.87
2018-09-06T05:27:01.312Z,7.10
2018-09-06T05:29:32.254Z,8.00
2018-09-06T05:32:02.996Z,9.30
2018-09-06T05:34:33.013Z,8.77
2018-09-06T05:37:03.716Z,12.55
2018-09-06T05:39:34.498Z,9.50
2018-09-06T05:42:05.033Z,6.30
2018-09-06T05:44:35.710Z,7.85
2018-09-06T05:47:06.802Z,7.40
2018-09-06T05:49:37.141Z,7.97
2018-09-06T05:52:07.650Z,7.95
2018-09-06T05:54:37.639Z,8.28
2018-09-06T05:57:08.748Z,9.88
2018-09-06T05:59:39.714Z,9.13
2018-09-06T06:02:10.542Z,9.35
2018-09-06T06:04:41.491Z,9.23
2018-09-06T06:07:13.039Z,11.90
2018-09-06T06:09:43.691Z,8.75
2018-09-06T06:12:14.677Z,9.88
2018-09-06T06:14:45.330Z,11.18
2018-09-06T06:17:16.028Z,9.40
2018-09-06T06:19:47.158Z,10.05
2018-09-06T06:22:18.216Z,8.80
2018-09-06T06:24:48.960Z,10.98
2018-09-06T06:27:19.604Z,9.80
2018-09-06T06:29:50.229Z,9.95
2018-09-06T06:32:20.932Z,9.25
2018-09-06T06:34:51.649Z,9.35
2018-09-06T06:37:22.304Z,9.60
2018-09-06T06:39:53.127Z,12.40
2018-09-06T06:42:24.095Z,11.18
2018-09-06T06:44:54.689Z,13.22
2018-09-06T06:47:25.577Z,11.10
2018-09-06T06:49:56.076Z,10.00
2018-09-06T06:52:26.802Z,12.30
2018-09-06T06:54:57.310Z,10.35
2018-09-06T06:57:28.098Z,15.60
2018-09-06T06:59:59.018Z,11.38
2018-09-06T07:02:29.540Z,10.35
2018-09-06T07:05:00.108Z,11.73
2018-09-06T07:07:31.117Z,12.03
2018-09-06T07:10:01.747Z,12.25
2018-09-06T07:12:32.532Z,11.18
2018-09-06T07:15:03.230Z,9.45
2018-09-06T07:17:34.142Z,9.95
2018-09-06T07:20:04.738Z,9.58
2018-09-06T07:22:35.226Z,10.35
2018-09-06T07:25:07.275Z,9.48
2018-09-06T07:27:37.950Z,11.30
2018-09-06T07:30:08.937Z,9.20
2018-09-06T07:32:39.745Z,9.13
2018-09-06T07:35:10.418Z,10.43
2018-09-06T07:37:41.125Z,10.43
2018-09-06T07:40:12.260Z,10.95
2018-09-06T07:42:42.845Z,11.63
2018-09-06T07:45:13.386Z,10.72
2018-09-06T07:47:44.107Z,11.05
2018-09-06T07:50:14.672Z,15.15
2018-09-06T07:52:45.656Z,11.03
2018-09-06T07:55:16.599Z,12.50
2018-09-06T07:57:47.318Z,10.95
2018-09-06T08:00:17.934Z,12.98
2018-09-06T08:02:48.455Z,11.12
2018-09-06T08:05:19.568Z,11.93
2018-09-06T08:07:50.464Z,12.13
2018-09-06T08:10:22.383Z,10.13
2018-09-06T08:12:52.938Z,11.88
2018-09-06T08:15:27.639Z,9.90
2018-09-06T08:17:59.303Z,9.75
2018-09-06T08:20:29.994Z,9.63
2018-09-06T08:23:01.949Z,11.80
2018-09-06T08:25:33.713Z,10.10
2018-09-06T08:28:04.945Z,14.38
2018-09-06T08:30:38.267Z,11.50
2018-09-06T08:33:09.450Z,11.93
2018-09-06T08:35:41.338Z,11.20
2018-09-06T08:38:12.851Z,13.00
2018-09-06T08:40:43.731Z,15.10
2018-09-06T08:43:14.577Z,11.85
2018-09-06T08:45:45.573Z,10.93
2018-09-06T08:48:16.420Z,12.30
2018-09-06T08:50:47.044Z,12.03
2018-09-06T08:53:17.787Z,12.15
2018-09-06T08:55:48.397Z,13.10
2018-09-06T08:58:19.378Z,12.50
2018-09-06T09:00:55.213Z,9.93
2018-09-06T09:03:25.823Z,14.35
2018-09-06T09:05:56.588Z,11.65
2018-09-06T09:08:27.639Z,13.48
2018-09-06T09:10:58.360Z,12.05
2018-09-06T09:13:29.370Z,17.62
2018-09-06T11:23:03.998Z,11.22
2018-09-06T19:47:13.662Z,18.13
2018-09-06T20:19:27.716Z,20.40
2018-09-06T20:25:04.908Z,19.47
2018-09-06T20:27:43.750Z,16.63
2018-09-06T20:33:22.341Z,20.17
2018-09-06T21:01:09.217Z,24.67
2018-09-06T21:03:46.260Z,22.83
2018-09-06T21:06:41.842Z,23.27
2018-09-06T21:33:15.619Z,28.43
2018-09-06T21:48:44.691Z,32.33
2018-09-06T21:51:14.992Z,23.23
2018-09-06T21:53:45.440Z,22.70
2018-09-06T21:56:15.819Z,25.50
2018-09-06T21:58:45.946Z,25.63
2018-09-06T22:01:42.502Z,21.70
2018-09-06T22:04:17.900Z,24.73
2018-09-06T22:06:48.067Z,27.30
2018-09-06T22:12:29.054Z,25.40
2018-09-06T22:14:59.212Z,25.20
2018-09-06T22:17:29.857Z,25.07
2018-09-06T22:20:00.992Z,28.80
2018-09-06T22:22:54.722Z,25.10
2018-09-06T22:25:25.146Z,23.47
2018-09-06T22:28:03.023Z,24.47
2018-09-06T22:46:36.581Z,25.17
2018-09-06T22:49:14.032Z,30.73
2018-09-06T22:54:47.728Z,29.03
2018-09-06T22:57:18.124Z,30.93
2018-09-06T22:59:49.131Z,35.00
2018-09-06T23:02:19.729Z,33.17
2018-09-06T23:04:50.639Z,38.07
2018-09-06T23:07:21.713Z,31.70
2018-09-06T23:13:03.030Z,28.57
2018-09-06T23:15:33.577Z,29.77
2018-09-06T23:21:42.614Z,30.53
2018-09-06T23:24:13.487Z,28.43
2018-09-06T23:26:43.868Z,32.13
2018-09-06T23:29:14.272Z,31.20
2018-09-06T23:31:44.932Z,30.77
2018-09-06T23:34:15.520Z,35.10
2018-09-06T23:52:59.098Z,29.33
2018-09-06T23:55:42.394Z,29.70
2018-09-06T23:58:13.332Z,27.37
